Time;durP1;ratioP1;P1;durP2;ratioP2;P2;SDS_P1;SDS_P2;PMS_P1;PMS_P2;Temp;Humidity;BMP_temperature;BMP_pressure;BME280_temperature;BME280_humidity;BME280_pressure;Samples;Min_cycle;Max_cycle;Signal;HPM_P1;HPM_P2
2023/07/10 00:00:17;;;;;;;8.38;4.40;;;19.70;99.90;;;;;;4994960;28;20038;-80
2023/07/10 00:02:43;;;;;;;9.60;5.00;;;19.60;99.90;;;;;;4995239;28;20885;-80
2023/07/10 00:05:13;;;;;;;7.72;4.50;;;19.60;99.90;;;;;;4994474;28;20124;-80
2023/07/10 00:07:39;;;;;;;8.90;4.40;;;19.50;99.90;;;;;;4994404;28;20022;-79
2023/07/10 00:10:05;;;;;;;8.70;4.70;;;19.50;99.90;;;;;;4997040;28;20037;-80
2023/07/10 00:12:31;;;;;;;11.05;5.45;;;19.50;99.90;;;;;;4998085;28;20025;-81
2023/07/10 00:14:56;;;;;;;9.80;4.93;;;19.40;99.90;;;;;;4995991;28;20127;-81
2023/07/10 00:17:22;;;;;;;11.63;4.95;;;19.40;99.90;;;;;;4995311;28;20022;-80
2023/07/10 00:19:47;;;;;;;8.40;4.50;;;19.40;99.90;;;;;;4998186;28;20042;-80
2023/07/10 00:22:13;;;;;;;8.77;4.63;;;19.30;99.90;;;;;;4996076;28;20119;-81
2023/07/10 00:24:38;;;;;;;6.53;4.45;;;19.30;99.90;;;;;;4995028;28;20501;-80
2023/07/10 00:27:10;;;;;;;7.95;4.55;;;19.30;99.90;;;;;;4996655;28;20038;-81
2023/07/10 00:29:36;;;;;;;8.43;4.93;;;19.30;99.90;;;;;;4995547;28;20077;-80
2023/07/10 00:32:05;;;;;;;6.90;4.78;;;19.30;99.90;;;;;;4996441;28;20667;-81
2023/07/10 00:34:30;;;;;;;8.00;4.70;;;19.30;99.90;;;;;;4994380;28;20050;-81
2023/07/10 00:36:56;;;;;;;9.35;4.90;;;19.30;99.90;;;;;;4997324;28;20060;-81
2023/07/10 00:39:27;;;;;;;6.97;4.43;;;19.30;99.90;;;;;;5000489;28;20080;-80
2023/07/10 00:42:10;;;;;;;8.85;4.57;;;19.30;99.90;;;;;;4994454;28;20128;-80
2023/07/10 00:44:43;;;;;;;8.15;4.45;;;19.20;99.90;;;;;;4995253;28;20102;-81
2023/07/10 00:47:16;;;;;;;8.38;4.45;;;19.20;99.90;;;;;;4994458;28;20255;-80
2023/07/10 00:49:50;;;;;;;9.35;4.53;;;19.20;99.90;;;;;;4997788;28;20044;-80
2023/07/10 00:52:39;;;;;;;11.57;4.63;;;19.20;99.90;;;;;;4993622;28;20033;-81
2023/07/10 00:55:26;;;;;;;6.35;4.10;;;19.20;99.90;;;;;;4997060;28;20037;-80
2023/07/10 00:58:18;;;;;;;9.13;4.72;;;19.20;99.90;;;;;;4994582;28;20393;-81
2023/07/10 01:01:03;;;;;;;6.38;4.13;;;19.20;99.90;;;;;;4984423;28;20046;-81
2023/07/10 01:03:29;;;;;;;8.35;4.28;;;19.20;99.90;;;;;;4999562;28;20062;-80
2023/07/10 01:06:11;;;;;;;7.82;4.40;;;19.20;99.90;;;;;;5026453;22;20669;-83
2023/07/10 01:08:40;;;;;;;10.10;4.13;;;19.20;99.90;;;;;;5013126;28;20037;-83
2023/07/10 01:11:05;;;;;;;8.35;4.57;;;19.20;99.90;;;;;;5014843;28;20037;-83
2023/07/10 01:13:31;;;;;;;6.85;4.53;;;19.20;99.90;;;;;;5013785;28;20398;-83
2023/07/10 01:15:57;;;;;;;9.15;4.80;;;19.20;99.90;;;;;;4998693;28;20172;-83
2023/07/10 01:18:24;;;;;;;7.20;4.10;;;19.20;99.90;;;;;;4998139;28;20398;-84
2023/07/10 01:21:00;;;;;;;9.65;4.75;;;19.20;99.90;;;;;;4998416;28;20072;-82
2023/07/10 01:23:26;;;;;;;10.55;4.35;;;19.20;99.90;;;;;;5002287;28;20034;-82
2023/07/10 01:25:57;;;;;;;10.60;4.43;;;19.20;99.90;;;;;;5002791;28;20064;-82
2023/07/10 01:28:23;;;;;;;9.00;4.38;;;19.20;99.90;;;;;;5001330;28;20037;-82
2023/07/10 01:30:52;;;;;;;6.97;4.50;;;19.20;99.90;;;;;;5000778;28;20082;-82
2023/07/10 01:33:23;;;;;;;8.43;4.55;;;19.20;99.90;;;;;;5000137;28;20080;-82
2023/07/10 01:35:52;;;;;;;10.20;4.50;;;19.20;99.90;;;;;;4999155;28;20072;-83
2023/07/10 01:38:20;;;;;;;6.72;4.53;;;19.20;99.90;;;;;;5001571;28;20054;-82
2023/07/10 01:40:51;;;;;;;8.20;4.35;;;19.30;99.90;;;;;;5002018;28;20041;-82
2023/07/10 01:43:16;;;;;;;7.03;4.30;;;19.30;99.90;;;;;;4999969;28;20482;-83
2023/07/10 01:45:48;;;;;;;7.00;4.47;;;19.30;99.90;;;;;;5001266;28;20045;-82
2023/07/10 01:48:16;;;;;;;8.07;4.25;;;19.40;99.90;;;;;;5000042;28;20029;-82
2023/07/10 01:50:42;;;;;;;8.05;4.65;;;19.40;99.90;;;;;;5001022;28;20090;-82
2023/07/10 01:53:09;;;;;;;9.93;4.68;;;19.50;99.90;;;;;;5003385;28;20978;-82
2023/07/10 01:55:43;;;;;;;7.60;4.35;;;19.50;99.90;;;;;;5004667;28;20069;-82
2023/07/10 01:58:13;;;;;;;8.63;4.78;;;19.50;99.90;;;;;;5007466;28;20096;-82
2023/07/10 02:00:40;;;;;;;5.80;4.32;;;19.60;99.90;;;;;;5006272;28;20485;-82
2023/07/10 02:03:06;;;;;;;9.65;4.25;;;19.60;99.90;;;;;;5007389;28;20046;-82
2023/07/10 02:05:32;;;;;;;7.18;3.88;;;19.60;99.90;;;;;;5006512;28;20148;-82
2023/07/10 02:07:57;;;;;;;8.27;4.20;;;19.60;99.90;;;;;;5005852;28;20145;-82
2023/07/10 02:10:23;;;;;;;6.57;4.40;;;19.60;99.90;;;;;;5007313;28;20033;-82
2023/07/10 02:12:49;;;;;;;8.50;4.78;;;19.60;99.90;;;;;;5007416;28;20032;-82
2023/07/10 02:15:17;;;;;;;8.30;4.53;;;19.70;99.90;;;;;;5004800;28;20045;-82
2023/07/10 02:17:42;;;;;;;6.55;4.47;;;19.70;99.90;;;;;;5006955;28;20041;-82
2023/07/10 02:20:08;;;;;;;6.47;4.07;;;19.60;99.90;;;;;;5004955;28;20042;-82
2023/07/10 02:22:34;;;;;;;6.30;4.10;;;19.60;99.90;;;;;;5004621;28;20117;-82
2023/07/10 02:24:59;;;;;;;7.38;4.28;;;19.70;99.90;;;;;;5004819;28;20048;-82
2023/07/10 02:27:25;;;;;;;11.25;4.55;;;19.70;99.90;;;;;;5004584;28;20025;-83
2023/07/10 02:29:50;;;;;;;7.30;4.30;;;19.60;99.90;;;;;;5004419;28;20073;-82
2023/07/10 02:32:16;;;;;;;10.63;4.80;;;19.60;99.90;;;;;;5005891;28;20105;-82
2023/07/10 02:34:41;;;;;;;7.18;4.38;;;19.60;99.90;;;;;;5004702;28;20162;-82
2023/07/10 02:37:07;;;;;;;7.00;3.90;;;19.60;99.90;;;;;;5003568;28;20100;-82
2023/07/10 02:39:32;;;;;;;9.23;4.78;;;19.60;99.90;;;;;;5003181;28;20096;-82
2023/07/10 02:41:58;;;;;;;7.90;3.92;;;19.60;99.90;;;;;;5003418;28;20029;-82
2023/07/10 02:44:23;;;;;;;6.93;4.80;;;19.50;99.90;;;;;;5000958;28;20034;-82
2023/07/10 02:46:49;;;;;;;8.93;4.25;;;19.50;99.90;;;;;;5003049;28;20026;-82
2023/07/10 02:49:14;;;;;;;9.90;4.80;;;19.50;99.90;;;;;;5003824;28;20072;-82
2023/07/10 02:51:40;;;;;;;12.27;4.55;;;19.40;99.90;;;;;;5001106;28;20088;-82
2023/07/10 02:54:10;;;;;;;8.07;4.63;;;19.40;99.90;;;;;;5001555;28;21361;-82
2023/07/10 02:56:36;;;;;;;9.80;4.90;;;19.30;99.90;;;;;;5002647;28;20056;-82
2023/07/10 02:59:01;;;;;;;8.63;4.70;;;19.20;99.90;;;;;;5002019;28;20044;-82
2023/07/10 03:01:27;;;;;;;8.90;4.97;;;19.20;99.90;;;;;;5001639;28;20037;-83
2023/07/10 03:03:52;;;;;;;6.80;3.97;;;19.10;99.90;;;;;;5000709;28;20137;-82
2023/07/10 03:06:19;;;;;;;6.93;4.13;;;19.10;99.90;;;;;;5003381;28;20133;-82
2023/07/10 03:08:45;;;;;;;8.63;4.63;;;19.00;99.90;;;;;;5007766;28;20025;-82
2023/07/10 03:11:13;;;;;;;8.25;4.72;;;18.90;99.90;;;;;;5008599;28;20046;-82
2023/07/10 03:13:39;;;;;;;10.10;4.68;;;18.80;99.90;;;;;;5002279;28;20061;-82
2023/07/10 03:16:08;;;;;;;8.32;4.68;;;18.80;99.90;;;;;;5005788;28;20782;-82
2023/07/10 03:18:34;;;;;;;8.15;4.55;;;18.70;99.90;;;;;;5004893;28;20037;-82
2023/07/10 03:21:00;;;;;;;8.02;4.72;;;18.60;99.90;;;;;;5002794;28;20063;-82
2023/07/10 03:23:25;;;;;;;10.80;4.60;;;18.60;99.90;;;;;;5004523;28;20059;-82
2023/07/10 03:25:51;;;;;;;8.45;4.40;;;18.60;99.90;;;;;;5004590;28;20117;-82
2023/07/10 03:28:17;;;;;;;8.70;4.85;;;18.50;99.90;;;;;;5004009;28;20378;-82
2023/07/10 03:30:42;;;;;;;9.73;4.60;;;18.50;99.90;;;;;;5002700;28;20442;-82
2023/07/10 03:33:11;;;;;;;15.45;4.68;;;18.50;99.90;;;;;;5003114;28;20052;-82
2023/07/10 03:35:37;;;;;;;11.82;4.13;;;18.40;99.90;;;;;;5001145;28;20030;-82
2023/07/10 03:38:02;;;;;;;7.57;4.30;;;18.40;99.90;;;;;;5001793;28;20030;-82
2023/07/10 03:40:28;;;;;;;7.40;4.60;;;18.40;99.90;;;;;;5003229;28;20131;-82
2023/07/10 03:42:53;;;;;;;9.23;4.55;;;18.40;99.90;;;;;;4984295;28;20062;-82
2023/07/10 03:45:19;;;;;;;9.95;4.85;;;18.30;99.90;;;;;;5002866;28;20042;-82
2023/07/10 03:47:44;;;;;;;8.73;4.45;;;18.40;99.90;;;;;;5001919;28;20026;-82
2023/07/10 03:50:10;;;;;;;9.68;4.35;;;18.30;99.90;;;;;;5000977;28;20144;-82
2023/07/10 03:52:36;;;;;;;11.75;4.70;;;18.30;99.90;;;;;;5002981;28;20030;-82
2023/07/10 03:55:01;;;;;;;11.60;4.25;;;18.30;99.90;;;;;;5003125;28;20054;-82
2023/07/10 03:57:27;;;;;;;8.40;4.82;;;18.30;99.90;;;;;;5003441;28;20045;-82
2023/07/10 03:59:53;;;;;;;9.15;4.65;;;18.40;99.90;;;;;;5002485;28;20025;-82
2023/07/10 04:02:18;;;;;;;8.35;4.20;;;18.40;99.90;;;;;;5001387;28;20087;-82
2023/07/10 04:04:44;;;;;;;7.72;4.63;;;18.50;99.90;;;;;;5001713;28;20081;-82
2023/07/10 04:07:10;;;;;;;11.48;4.45;;;18.50;99.90;;;;;;5003163;28;20033;-82
2023/07/10 04:09:35;;;;;;;9.35;4.38;;;18.60;99.90;;;;;;5000370;28;20080;-77
2023/07/10 04:12:02;;;;;;;10.25;4.78;;;18.70;99.90;;;;;;4996784;28;20030;-77
2023/07/10 04:14:27;;;;;;;7.40;4.50;;;18.80;99.90;;;;;;4996721;28;20255;-77
2023/07/10 04:16:53;;;;;;;8.02;4.13;;;18.90;99.90;;;;;;4997375;28;20030;-77
2023/07/10 04:19:19;;;;;;;8.95;4.13;;;19.10;99.90;;;;;;4997424;28;20022;-77
2023/07/10 04:21:45;;;;;;;7.70;4.57;;;19.20;99.90;;;;;;4995922;28;20030;-77
2023/07/10 04:24:12;;;;;;;6.22;4.10;;;19.30;99.90;;;;;;4994807;28;20038;-78
2023/07/10 04:26:37;;;;;;;9.40;5.10;;;19.40;99.90;;;;;;4995633;28;20334;-78
2023/07/10 04:29:05;;;;;;;9.40;4.57;;;19.50;99.90;;;;;;4996514;28;20026;-78
2023/07/10 04:31:32;;;;;;;7.70;4.55;;;19.60;99.90;;;;;;4995765;28;20037;-78
2023/07/10 04:33:57;;;;;;;8.88;4.90;;;19.70;99.90;;;;;;4992362;28;20050;-78
2023/07/10 04:36:24;;;;;;;6.45;4.40;;;19.70;99.90;;;;;;4993892;28;20033;-78
2023/07/10 04:38:49;;;;;;;11.32;4.38;;;19.80;99.90;;;;;;4995654;28;20030;-78
2023/07/10 04:41:21;;;;;;;8.95;4.50;;;19.90;99.90;;;;;;4995251;28;20051;-77
2023/07/10 04:43:47;;;;;;;9.43;4.28;;;20.00;99.90;;;;;;4995669;28;20026;-77
2023/07/10 04:46:14;;;;;;;7.18;3.90;;;20.10;99.90;;;;;;4993497;28;20129;-77
2023/07/10 04:48:43;;;;;;;7.63;4.78;;;20.00;99.90;;;;;;4995385;28;20041;-77
2023/07/10 04:51:10;;;;;;;7.15;4.30;;;20.10;99.90;;;;;;4991781;28;20031;-77
2023/07/10 04:53:36;;;;;;;8.95;4.53;;;20.10;99.90;;;;;;4988999;28;21428;-77
2023/07/10 04:56:04;;;;;;;8.23;4.80;;;20.20;99.90;;;;;;4993784;28;20113;-77
2023/07/10 04:58:48;;;;;;;11.60;4.90;;;20.20;99.90;;;;;;4995100;28;20121;-76
2023/07/10 05:01:14;;;;;;;7.50;4.35;;;20.30;99.90;;;;;;4989708;28;20559;-77
2023/07/10 05:03:40;;;;;;;7.65;4.07;;;20.40;99.90;;;;;;4993062;28;20042;-74
2023/07/10 05:06:05;;;;;;;8.23;4.47;;;20.40;99.90;;;;;;4993694;28;20096;-74
2023/07/10 05:08:31;;;;;;;8.27;4.93;;;20.50;99.90;;;;;;4994146;28;20797;-74
2023/07/10 05:10:56;;;;;;;7.85;4.50;;;20.60;99.90;;;;;;4994147;28;21278;-74
2023/07/10 05:13:24;;;;;;;9.48;4.07;;;20.70;99.90;;;;;;4994691;28;20114;-74
2023/07/10 05:15:50;;;;;;;9.73;5.20;;;20.80;99.90;;;;;;4988208;28;20037;-74
2023/07/10 05:18:16;;;;;;;6.43;4.47;;;20.90;99.90;;;;;;4988068;28;20018;-73
2023/07/10 05:20:47;;;;;;;9.13;4.75;;;21.00;99.90;;;;;;4988889;28;21335;-73
2023/07/10 05:23:14;;;;;;;8.35;4.75;;;21.10;99.90;;;;;;4987731;28;20117;-74
2023/07/10 05:25:39;;;;;;;8.73;4.47;;;21.20;99.90;;;;;;4985095;28;20104;-73
2023/07/10 05:28:06;;;;;;;10.88;4.20;;;21.30;99.90;;;;;;4986766;28;20216;-73
2023/07/10 05:30:34;;;;;;;9.68;4.28;;;21.40;99.90;;;;;;4986501;28;20050;-73
2023/07/10 05:32:59;;;;;;;9.68;4.90;;;21.60;99.90;;;;;;4986049;28;20026;-74
2023/07/10 05:35:25;;;;;;;7.72;4.40;;;21.80;99.90;;;;;;4984772;28;20050;-74
2023/07/10 05:37:51;;;;;;;7.13;4.55;;;21.90;99.90;;;;;;4985590;28;20049;-74
2023/07/10 05:40:16;;;;;;;9.38;4.50;;;22.00;99.90;;;;;;4987326;28;20845;-74
2023/07/10 05:42:43;;;;;;;7.57;4.38;;;22.10;99.90;;;;;;4985837;28;20046;-74
2023/07/10 05:45:09;;;;;;;6.53;4.20;;;22.20;99.90;;;;;;4985851;28;20046;-74
2023/07/10 05:47:34;;;;;;;6.28;4.00;;;22.30;99.90;;;;;;4980613;28;20069;-74
2023/07/10 05:50:00;;;;;;;9.10;4.10;;;22.40;99.90;;;;;;4985407;28;20083;-73
2023/07/10 05:52:25;;;;;;;7.80;4.38;;;22.50;99.90;;;;;;4985982;28;20030;-74
2023/07/10 05:54:52;;;;;;;10.38;4.35;;;22.50;99.90;;;;;;4986224;28;20030;-74
2023/07/10 05:57:17;;;;;;;10.20;4.72;;;22.60;99.90;;;;;;4985635;28;20154;-73
2023/07/10 05:59:43;;;;;;;8.35;4.57;;;22.70;99.90;;;;;;4985462;28;20026;-74
2023/07/10 06:02:11;;;;;;;10.65;4.38;;;22.70;99.90;;;;;;4985957;28;21191;-73
2023/07/10 06:04:38;;;;;;;7.90;4.50;;;22.80;99.90;;;;;;4987073;28;21039;-74
2023/07/10 06:07:04;;;;;;;7.32;4.15;;;22.90;99.90;;;;;;4984368;28;20042;-74
2023/07/10 06:09:29;;;;;;;11.02;4.18;;;23.00;99.90;;;;;;4987237;28;20390;-73
2023/07/10 06:11:55;;;;;;;11.90;4.63;;;23.10;99.90;;;;;;4985784;28;20041;-74
2023/07/10 06:14:20;;;;;;;8.10;4.28;;;23.10;99.90;;;;;;4984264;28;20038;-73
2023/07/10 06:16:46;;;;;;;7.10;4.13;;;23.20;99.90;;;;;;4984003;28;20771;-74
2023/07/10 06:19:11;;;;;;;9.02;4.22;;;23.20;99.90;;;;;;4988668;28;20033;-74
2023/07/10 06:21:37;;;;;;;9.73;4.65;;;23.30;99.90;;;;;;4980321;28;20042;-74
2023/07/10 06:24:04;;;;;;;16.58;4.28;;;23.40;99.90;;;;;;4976838;28;20097;-74
2023/07/10 06:26:30;;;;;;;15.07;4.85;;;23.40;99.90;;;;;;4982902;28;20619;-75
2023/07/10 06:28:55;;;;;;;12.68;4.97;;;23.50;99.90;;;;;;4985640;28;20113;-75
2023/07/10 06:31:21;;;;;;;12.43;4.32;;;23.50;99.90;;;;;;4985808;28;20387;-73
2023/07/10 06:33:46;;;;;;;7.85;4.22;;;23.60;99.90;;;;;;4988497;28;20026;-73
2023/07/10 06:36:12;;;;;;;15.07;4.38;;;23.70;99.90;;;;;;4988936;28;20030;-73
2023/07/10 06:38:38;;;;;;;14.18;4.63;;;23.80;99.90;;;;;;4980917;28;21106;-73
2023/07/10 06:41:05;;;;;;;9.15;4.63;;;23.90;99.90;;;;;;4989495;28;20036;-73
2023/07/10 06:43:31;;;;;;;11.07;4.47;;;24.00;99.90;;;;;;4992949;28;20203;-72
2023/07/10 06:45:57;;;;;;;11.57;4.68;;;24.20;99.90;;;;;;4992782;28;20474;-73
2023/07/10 06:48:23;;;;;;;14.68;4.70;;;24.30;99.90;;;;;;4994831;28;20498;-77
2023/07/10 06:50:50;;;;;;;10.43;4.38;;;24.30;99.90;;;;;;4994322;28;20049;-78
2023/07/10 06:53:16;;;;;;;11.15;4.47;;;24.50;99.90;;;;;;4995720;28;20041;-78
2023/07/10 06:55:44;;;;;;;8.50;3.95;;;24.50;99.90;;;;;;4993827;28;20030;-79
2023/07/10 06:58:13;;;;;;;11.73;4.15;;;24.70;99.90;;;;;;4990447;28;20034;-78
2023/07/10 07:00:39;;;;;;;9.05;4.35;;;24.80;99.90;;;;;;4990368;28;20753;-77
2023/07/10 07:03:07;;;;;;;7.07;3.90;;;25.10;99.90;;;;;;4991494;28;20029;-78
2023/07/10 07:05:32;;;;;;;10.25;4.65;;;25.30;99.90;;;;;;4990175;28;20070;-78
2023/07/10 07:07:58;;;;;;;7.97;4.15;;;25.50;99.90;;;;;;4989733;28;20265;-77
2023/07/10 07:10:23;;;;;;;7.18;4.00;;;25.60;99.90;;;;;;4991081;28;21319;-77
2023/07/10 07:12:49;;;;;;;11.13;4.80;;;25.70;99.90;;;;;;4989575;28;20450;-77
2023/07/10 07:15:15;;;;;;;10.95;4.75;;;25.80;99.90;;;;;;4989090;28;20179;-77
2023/07/10 07:17:41;;;;;;;10.43;4.20;;;25.70;99.90;;;;;;4989722;28;20025;-78
2023/07/10 07:20:07;;;;;;;7.88;3.60;;;25.70;99.90;;;;;;4994100;28;20060;-78
2023/07/10 07:22:33;;;;;;;7.78;3.92;;;25.70;99.90;;;;;;4997145;28;20029;-80
2023/07/10 07:24:58;;;;;;;11.10;3.92;;;25.70;99.90;;;;;;4998021;28;20046;-80
2023/07/10 07:27:24;;;;;;;9.80;4.15;;;25.70;99.90;;;;;;4997121;28;20029;-81
2023/07/10 07:29:51;;;;;;;9.27;3.97;;;25.80;99.90;;;;;;4999177;28;20026;-80
2023/07/10 07:32:18;;;;;;;8.35;3.80;;;25.90;99.90;;;;;;5002268;28;20034;-80
2023/07/10 07:34:45;;;;;;;9.75;4.60;;;26.00;99.90;;;;;;4997344;28;20073;-81
2023/07/10 07:37:10;;;;;;;10.90;4.25;;;26.00;99.90;;;;;;4998067;28;20030;-82
2023/07/10 07:39:36;;;;;;;8.10;4.18;;;26.00;99.90;;;;;;4994862;28;20081;-81
2023/07/10 07:42:01;;;;;;;10.88;3.92;;;25.90;99.90;;;;;;5000125;28;20022;-81
2023/07/10 07:44:27;;;;;;;12.27;4.00;;;25.90;99.90;;;;;;4998185;28;20034;-82
2023/07/10 07:46:53;;;;;;;8.38;3.90;;;25.80;99.90;;;;;;4998717;28;20101;-81
2023/07/10 07:49:18;;;;;;;12.35;4.57;;;25.90;99.90;;;;;;4999483;28;20017;-81
2023/07/10 07:51:44;;;;;;;11.55;4.05;;;25.90;99.90;;;;;;4996590;28;20092;-81
2023/07/10 07:54:13;;;;;;;9.63;4.22;;;25.80;99.90;;;;;;4998531;28;21111;-85
2023/07/10 07:56:38;;;;;;;8.55;4.25;;;25.80;99.90;;;;;;4992926;28;20053;-83
2023/07/10 07:59:04;;;;;;;10.73;4.28;;;25.70;99.90;;;;;;4996677;28;21327;-85
2023/07/10 08:01:30;;;;;;;9.10;4.30;;;25.70;99.90;;;;;;4996322;28;20453;-84
2023/07/10 08:03:56;;;;;;;9.88;4.03;;;25.60;99.90;;;;;;4995760;28;20156;-83
2023/07/10 08:06:26;;;;;;;13.30;4.32;;;25.50;99.90;;;;;;4996532;28;21729;-84
2023/07/10 08:08:51;;;;;;;13.05;4.30;;;25.50;99.90;;;;;;4994301;28;20022;-84
2023/07/10 08:11:17;;;;;;;8.88;3.80;;;25.40;99.90;;;;;;4995259;28;20030;-84
2023/07/10 08:13:43;;;;;;;8.52;4.35;;;25.30;99.90;;;;;;4996426;28;20029;-84
2023/07/10 08:16:09;;;;;;;8.75;4.15;;;25.10;99.90;;;;;;4996191;28;20120;-84
2023/07/10 08:18:34;;;;;;;13.15;5.45;;;25.00;99.90;;;;;;4994250;28;20034;-84
2023/07/10 08:21:05;;;;;;;10.45;4.85;;;24.90;99.90;;;;;;4993247;28;20029;-85
2023/07/10 08:23:31;;;;;;;9.68;4.32;;;25.00;99.90;;;;;;4997005;28;20046;-84
2023/07/10 08:25:56;;;;;;;9.20;4.57;;;24.80;99.90;;;;;;4993338;28;21055;-86
2023/07/10 08:28:22;;;;;;;10.13;4.57;;;24.70;99.90;;;;;;4994295;28;21465;-84
2023/07/10 08:30:48;;;;;;;13.13;4.30;;;24.60;99.90;;;;;;4995371;28;20041;-84
2023/07/10 08:33:13;;;;;;;10.38;4.47;;;24.60;99.90;;;;;;4995878;28;21172;-84
2023/07/10 08:35:39;;;;;;;6.65;3.88;;;24.40;99.90;;;;;;4997879;28;20034;-84
2023/07/10 08:38:05;;;;;;;12.60;4.40;;;24.40;99.90;;;;;;4998872;28;20042;-84
2023/07/10 08:40:35;;;;;;;11.30;4.75;;;24.30;99.90;;;;;;4995642;28;20114;-84
2023/07/10 08:43:14;;;;;;;22.27;5.68;;;24.30;99.90;;;;;;4996697;28;20139;-83
2023/07/10 08:45:40;;;;;;;16.05;5.03;;;24.20;99.90;;;;;;4994928;28;20034;-84
2023/07/10 08:48:38;;;;;;;10.85;4.68;;;24.00;99.90;;;;;;4995026;28;20029;-85
2023/07/10 08:51:15;;;;;;;14.13;4.80;;;23.80;99.90;;;;;;4991759;28;20030;-85
2023/07/10 08:53:43;;;;;;;9.65;4.05;;;23.60;99.90;;;;;;4996220;28;20092;-84
2023/07/10 08:56:28;;;;;;;9.32;4.55;;;23.40;99.90;;;;;;4994756;28;20060;-85
2023/07/10 08:59:02;;;;;;;8.98;4.40;;;23.30;99.90;;;;;;4994867;28;20032;-85
2023/07/10 09:01:32;;;;;;;12.27;4.30;;;23.20;99.90;;;;;;4979151;28;20125;-85
2023/07/10 09:04:00;;;;;;;8.73;3.83;;;23.10;99.90;;;;;;4995795;28;20037;-85
2023/07/10 09:06:37;;;;;;;7.28;4.30;;;22.90;99.90;;;;;;4996406;28;20394;-87
2023/07/10 09:09:21;;;;;;;9.00;4.00;;;22.70;99.90;;;;;;4999314;28;20089;-86
2023/07/10 09:11:48;;;;;;;6.55;4.22;;;22.60;99.90;;;;;;4985594;28;20039;-87
2023/07/10 09:14:43;;;;;;;8.70;3.88;;;22.40;99.90;;;;;;4997982;28;20112;-86
2023/07/10 09:17:54;;;;;;;7.55;3.95;;;22.30;99.90;;;;;;4997083;28;20025;-76
2023/07/10 09:20:22;;;;;;;12.63;4.60;;;22.00;99.90;;;;;;4994904;28;20048;-87
2023/07/10 09:22:56;;;;;;;8.88;4.38;;;21.70;99.90;;;;;;4990128;28;20052;-86
2023/07/10 09:25:23;;;;;;;12.27;5.15;;;21.50;99.90;;;;;;4987069;28;20110;-86
2023/07/10 09:27:49;;;;;;;11.90;5.05;;;21.40;99.90;;;;;;4989986;28;20089;-86
2023/07/10 09:30:35;;;;;;;11.40;5.03;;;21.20;99.90;;;;;;4989541;28;20077;-85
2023/07/10 09:33:03;;;;;;;13.57;6.10;;;21.10;99.90;;;;;;4988106;28;20030;-86
2023/07/10 09:35:29;;;;;;;12.95;5.25;;;21.10;99.90;;;;;;4989423;28;20730;-86
2023/07/10 09:37:55;;;;;;;13.93;5.38;;;21.00;99.90;;;;;;4988906;28;20022;-85
2023/07/10 09:40:32;;;;;;;11.52;5.53;;;21.00;99.90;;;;;;4986842;28;20399;-85
2023/07/10 09:43:03;;;;;;;8.65;4.90;;;21.10;99.90;;;;;;4987561;28;20049;-85
2023/07/10 09:45:42;;;;;;;10.00;5.15;;;21.10;99.90;;;;;;4988705;28;20038;-85
2023/07/10 09:48:33;;;;;;;12.45;5.38;;;21.20;99.90;;;;;;4991492;28;20097;-85
2023/07/10 09:51:06;;;;;;;10.68;4.78;;;21.40;99.90;;;;;;4988340;28;21319;-85
2023/07/10 09:53:46;;;;;;;15.00;5.65;;;21.50;99.90;;;;;;4989194;28;20497;-85
2023/07/10 09:56:24;;;;;;;12.68;5.50;;;21.80;99.90;;;;;;4989374;28;20037;-84
2023/07/10 09:58:55;;;;;;;9.73;4.85;;;22.10;99.90;;;;;;4988424;28;20088;-84
2023/07/10 10:01:28;;;;;;;14.82;5.97;;;22.30;99.90;;;;;;4993576;28;20018;-84
2023/07/10 10:03:54;;;;;;;11.35;5.18;;;22.60;99.90;;;;;;4977125;28;20029;-77
2023/07/10 10:06:24;;;;;;;13.95;4.90;;;22.90;99.90;;;;;;4993544;28;21421;-76
2023/07/10 10:08:51;;;;;;;10.85;5.40;;;23.30;99.90;;;;;;4994690;28;20113;-77
2023/07/10 10:11:17;;;;;;;11.77;5.47;;;23.60;99.90;;;;;;4993483;28;20030;-77
2023/07/10 10:13:56;;;;;;;11.07;5.88;;;23.80;99.90;;;;;;4995075;28;20022;-77
2023/07/10 10:16:35;;;;;;;11.05;5.18;;;24.00;99.90;;;;;;4999060;28;20069;-77
2023/07/10 10:19:22;;;;;;;10.05;5.10;;;24.30;99.90;;;;;;4997899;28;20026;-77
2023/07/10 10:21:48;;;;;;;8.70;4.80;;;24.70;99.90;;;;;;4997239;28;20200;-77
2023/07/10 10:24:14;;;;;;;13.15;5.13;;;25.20;99.90;;;;;;4996511;28;20026;-76
2023/07/10 10:27:22;;;;;;;9.82;4.88;;;25.50;99.90;;;;;;4994442;28;20033;-76
2023/07/10 10:29:57;;;;;;;8.65;4.95;;;25.80;99.90;;;;;;4992437;28;20034;-76
2023/07/10 10:32:28;;;;;;;;;;;26.20;99.90;;;;;;4998320;28;20497;-82
2023/07/10 10:35:34;;;;;;;11.88;5.00;;;26.70;99.90;;;;;;4997906;28;20618;-81
2023/07/10 10:38:28;;;;;;;8.55;4.88;;;27.10;99.90;;;;;;4995356;28;20104;-82
2023/07/10 10:40:53;;;;;;;11.20;4.75;;;27.70;99.90;;;;;;4988942;28;20050;-81
2023/07/10 10:43:52;;;;;;;11.30;5.40;;;28.10;99.90;;;;;;4995686;28;20151;-81
2023/07/10 10:46:26;;;;;;;10.00;4.78;;;28.50;99.90;;;;;;4995410;28;20213;-81
2023/07/10 10:49:10;;;;;;;11.82;5.38;;;28.60;99.90;;;;;;4997744;28;20041;-81
2023/07/10 10:51:54;;;;;;;10.23;4.60;;;28.70;99.90;;;;;;4997019;28;20034;-81
2023/07/10 10:54:27;;;;;;;;;;;29.00;99.90;;;;;;4997426;28;20108;-81
2023/07/10 10:57:16;;;;;;;15.55;4.90;;;29.10;99.90;;;;;;4996129;28;19914;-82
2023/07/10 11:00:05;;;;;;;8.40;4.32;;;29.30;99.90;;;;;;4994290;28;20026;-82
2023/07/10 11:02:51;;;;;;;10.20;4.68;;;29.60;99.90;;;;;;4988088;28;20056;-84
2023/07/10 11:05:27;;;;;;;11.20;4.78;;;29.90;99.90;;;;;;4995102;28;20057;-83
2023/07/10 11:07:57;;;;;;;8.55;3.63;;;30.30;99.90;;;;;;4994626;28;20029;-83
2023/07/10 11:10:30;;;;;;;6.97;4.10;;;30.50;99.90;;;;;;4990852;28;20517;-81
2023/07/10 11:12:56;;;;;;;11.00;4.45;;;30.80;99.90;;;;;;4991700;28;20113;-81
2023/07/10 11:15:22;;;;;;;7.03;3.78;;;31.10;99.90;;;;;;4994508;28;20658;-84
2023/07/10 11:17:53;;;;;;;6.35;3.88;;;31.10;99.90;;;;;;4998698;28;20896;-84
2023/07/10 11:20:20;;;;;;;7.55;3.65;;;31.20;99.90;;;;;;4996957;28;20497;-82
2023/07/10 11:22:55;;;;;;;10.02;4.22;;;31.30;99.90;;;;;;4997289;28;21425;-82
2023/07/10 11:29:27;;;;;;;7.93;3.40;;;32.00;99.90;;;;;;5051769;28;20544;-82
2023/07/10 11:31:55;;;;;;;5.85;3.67;;;32.10;99.90;;;;;;5048352;28;20075;-85
2023/07/10 11:34:30;;;;;;;7.97;3.92;;;32.20;99.90;;;;;;5046516;28;21451;-83
2023/07/10 11:36:57;;;;;;;9.13;4.05;;;32.40;99.90;;;;;;5054663;28;20089;-84
2023/07/10 11:39:36;;;;;;;6.30;3.88;;;32.20;99.90;;;;;;5054025;28;20060;-84
2023/07/10 11:42:02;;;;;;;8.23;3.53;;;32.10;99.90;;;;;;5052608;28;20471;-84
2023/07/10 11:44:28;;;;;;;7.53;3.33;;;31.80;99.90;;;;;;5052374;28;20116;-84
2023/07/10 11:47:06;;;;;;;7.22;3.63;;;31.60;99.90;;;;;;5053204;28;20123;-84
2023/07/10 11:49:40;;;;;;;8.82;3.78;;;31.70;99.90;;;;;;5051917;28;20092;-83
2023/07/10 11:52:14;;;;;;;6.85;3.40;;;31.50;99.90;;;;;;5056398;28;20041;-84
2023/07/10 11:55:00;;;;;;;8.15;3.63;;;31.40;99.90;;;;;;5052504;28;20389;-84
2023/07/10 11:57:34;;;;;;;7.38;3.90;;;31.40;99.90;;;;;;5053021;28;20124;-84
2023/07/10 12:00:05;;;;;;;6.43;3.55;;;31.60;99.90;;;;;;5053331;28;21448;-84
2023/07/10 12:02:39;;;;;;;10.30;4.10;;;31.60;99.90;;;;;;5053799;28;20068;-84
2023/07/10 12:05:14;;;;;;;6.45;3.47;;;31.70;99.90;;;;;;5054311;28;20480;-84
2023/07/10 12:08:06;;;;;;;5.25;3.17;;;31.90;99.90;;;;;;5055603;28;21021;-85
2023/07/10 12:10:37;;;;;;;4.63;3.35;;;32.40;99.60;;;;;;5055656;28;21382;-84
2023/07/10 12:13:23;;;;;;;6.05;3.40;;;32.60;99.00;;;;;;5054922;28;20032;-85
2023/07/10 12:15:52;;;;;;;5.25;3.58;;;32.90;98.00;;;;;;5052175;28;21037;-84
2023/07/10 12:18:38;;;;;;;9.00;3.55;;;33.00;98.70;;;;;;5050622;28;20025;-85
2023/07/10 12:21:12;;;;;;;6.70;3.90;;;33.20;97.40;;;;;;5050037;28;20175;-84
2023/07/10 12:23:37;;;;;;;6.30;3.20;;;33.80;96.00;;;;;;5049480;28;20064;-83
2023/07/10 12:26:05;;;;;;;6.90;3.25;;;33.70;96.30;;;;;;5049643;28;20155;-83
2023/07/10 12:28:30;;;;;;;6.47;3.28;;;33.60;95.60;;;;;;5049829;28;20037;-84
2023/07/10 12:30:58;;;;;;;8.95;3.30;;;33.80;96.00;;;;;;5048416;28;20075;-84
2023/07/10 12:33:37;;;;;;;10.27;3.33;;;33.70;96.10;;;;;;5048599;28;20153;-83
2023/07/10 12:36:25;;;;;;;9.68;3.58;;;33.90;95.60;;;;;;5048209;28;20037;-83
2023/07/10 12:38:53;;;;;;;7.13;3.17;;;33.90;94.90;;;;;;5042616;28;20037;-83
2023/07/10 12:41:19;;;;;;;8.20;3.25;;;34.10;94.20;;;;;;5034774;28;20087;-84
2023/07/10 12:43:53;;;;;;;10.35;3.17;;;34.20;94.50;;;;;;5035221;28;20021;-83
2023/07/10 12:46:22;;;;;;;;;;;34.10;94.00;;;;;;5036320;28;20031;-84
2023/07/10 12:48:52;;;;;;;7.55;2.88;;;34.00;93.80;;;;;;5036340;28;19916;-84
2023/07/10 12:51:28;;;;;;;8.52;2.97;;;34.10;93.30;;;;;;5036761;28;20118;-83
2023/07/10 12:53:54;;;;;;;6.05;3.13;;;34.00;93.40;;;;;;5036314;28;20087;-83
2023/07/10 12:56:35;;;;;;;9.00;3.10;;;33.70;94.60;;;;;;5035912;28;20661;-83
2023/07/10 12:59:13;;;;;;;6.82;3.00;;;33.30;93.70;;;;;;5037856;28;20025;-84
2023/07/10 13:01:50;;;;;;;5.85;3.10;;;32.90;93.60;;;;;;5037770;28;20021;-83